Time;durP1;ratioP1;P1;durP2;ratioP2;P2;SDS_P1;SDS_P2;PMS_P1;PMS_P2;Temp;Humidity;BMP_temperature;BMP_pressure;BME280_temperature;BME280_humidity;BME280_pressure;Samples;Min_cycle;Max_cycle;Signal;HPM_P1;HPM_P2
2021/09/04 00:01:40;;;;;;;9.13;4.92;;;;;;;14.17;78.53;99591.20;1819744;77;21119;-79
2021/09/04 00:04:08;;;;;;;12.23;5.85;;;;;;;14.13;79.35;99602.06;1819874;78;21045;-78
2021/09/04 00:06:34;;;;;;;9.58;4.92;;;;;;;14.05;79.73;99596.73;1819589;78;21013;-78
2021/09/04 00:09:01;;;;;;;8.53;4.90;;;;;;;14.02;80.09;99600.05;1819740;78;21001;-77
2021/09/04 00:11:29;;;;;;;9.13;5.28;;;;;;;13.98;80.67;99600.69;1819825;77;21006;-78
2021/09/04 00:13:58;;;;;;;9.18;5.45;;;;;;;13.93;81.61;99596.15;1819859;77;21508;-78
2021/09/04 00:16:26;;;;;;;10.23;5.08;;;;;;;13.88;82.54;99603.52;1819841;78;21535;-77
2021/09/04 00:18:55;;;;;;;10.43;5.60;;;;;;;13.80;82.55;99601.34;1819225;78;21049;-78
2021/09/04 00:21:23;;;;;;;9.73;5.10;;;;;;;13.76;83.18;99608.22;1813530;79;21048;-76
2021/09/04 00:23:54;;;;;;;9.83;5.37;;;;;;;13.71;83.54;99605.84;1813815;78;21030;-79
2021/09/04 00:26:24;;;;;;;8.33;4.97;;;;;;;13.68;83.87;99619.70;1813801;78;21611;-77
2021/09/04 00:28:51;;;;;;;8.38;5.08;;;;;;;13.63;84.41;99620.82;1814015;79;21618;-77
2021/09/04 00:31:17;;;;;;;12.70;5.72;;;;;;;13.58;84.81;99622.88;1813919;79;21003;-78
2021/09/04 00:33:45;;;;;;;9.63;5.28;;;;;;;13.55;85.04;99625.72;1813402;78;21085;-76
2021/09/04 00:36:12;;;;;;;8.23;5.37;;;;;;;13.54;85.30;99629.28;1813747;78;21088;-80
2021/09/04 00:38:38;;;;;;;9.75;5.47;;;;;;;13.52;85.25;99619.26;1813377;79;22091;-79
2021/09/04 00:41:06;;;;;;;9.38;5.55;;;;;;;13.54;85.47;99623.15;1813741;78;21044;-77
2021/09/04 00:43:32;;;;;;;8.08;4.83;;;;;;;13.52;85.57;99621.91;1813806;79;21081;-78
2021/09/04 00:46:08;;;;;;;12.47;5.95;;;;;;;13.52;85.88;99625.88;1813556;78;21013;-78
2021/09/04 00:48:35;;;;;;;10.63;5.70;;;;;;;13.52;86.27;99631.16;1813564;79;20995;-77
2021/09/04 00:51:07;;;;;;;9.93;5.90;;;;;;;13.50;86.46;99635.69;1813948;79;22033;-78
2021/09/04 00:53:34;;;;;;;14.10;5.40;;;;;;;13.48;86.35;99630.98;1813674;78;21014;-78
2021/09/04 00:56:01;;;;;;;8.50;5.12;;;;;;;13.48;86.41;99627.02;1793379;79;21057;-77
2021/09/04 00:58:28;;;;;;;10.70;5.25;;;;;;;13.48;86.41;99615.55;1811468;79;21540;-78
2021/09/04 01:00:55;;;;;;;10.82;5.92;;;;;;;13.46;86.57;99609.05;1811707;79;21025;-78
2021/09/04 01:03:21;;;;;;;10.60;5.85;;;;;;;13.42;86.86;99614.13;1811733;79;21139;-76
2021/09/04 01:05:50;;;;;;;15.08;6.67;;;;;;;13.41;86.82;99621.22;1811638;79;21036;-78
2021/09/04 01:08:18;;;;;;;14.70;6.85;;;;;;;13.40;87.07;99622.61;1811720;79;21062;-77
2021/09/04 01:10:46;;;;;;;13.58;6.60;;;;;;;13.37;87.33;99617.51;1812096;79;21493;-77
2021/09/04 01:13:13;;;;;;;12.82;6.15;;;;;;;13.34;87.85;99621.19;1812000;79;21029;-77
2021/09/04 01:15:43;;;;;;;10.18;5.40;;;;;;;13.32;87.92;99620.86;1811978;79;20986;-75
2021/09/04 01:18:13;;;;;;;11.55;6.10;;;;;;;13.30;88.23;99628.05;1811907;78;21010;-78
2021/09/04 01:20:41;;;;;;;9.48;5.15;;;;;;;13.30;88.36;99628.05;1798319;78;22083;-78
2021/09/04 01:23:09;;;;;;;13.32;6.80;;;;;;;13.30;88.23;99628.90;1790176;80;21598;-78
2021/09/04 01:25:35;;;;;;;12.43;6.08;;;;;;;13.32;88.48;99638.92;1790378;80;21127;-77
2021/09/04 01:28:03;;;;;;;11.30;5.65;;;;;;;13.31;88.54;99636.36;1792871;80;21032;-78
2021/09/04 01:30:30;;;;;;;12.68;5.78;;;;;;;13.32;88.64;99639.37;1792029;80;21083;-78
2021/09/04 01:32:56;;;;;;;10.25;5.85;;;;;;;13.32;88.79;99653.47;1792171;80;21044;-78
2021/09/04 01:35:25;;;;;;;7.83;4.83;;;;;;;13.33;88.81;99649.03;1792802;79;21012;-78
2021/09/04 01:37:52;;;;;;;14.53;6.70;;;;;;;13.35;89.01;99648.48;1794701;79;21234;-77
2021/09/04 01:40:18;;;;;;;19.67;6.65;;;;;;;13.35;89.00;99654.61;1796911;79;21104;-77
2021/09/04 01:42:46;;;;;;;12.90;5.83;;;;;;;13.33;89.13;99655.16;1796590;80;20992;-76
2021/09/04 01:45:13;;;;;;;11.63;5.75;;;;;;;13.32;89.22;99656.11;1797174;78;20985;-77
2021/09/04 01:47:39;;;;;;;7.72;4.65;;;;;;;13.32;89.05;99659.20;1797306;77;20961;-78
2021/09/04 01:50:13;;;;;;;7.03;4.20;;;;;;;13.33;88.70;99662.25;1797329;77;21055;-76
2021/09/04 01:52:40;;;;;;;7.40;3.52;;;;;;;13.33;87.90;99667.53;1793318;78;21687;-78
2021/09/04 01:55:07;;;;;;;6.03;3.55;;;;;;;13.31;87.52;99661.48;1791640;80;20985;-78
2021/09/04 01:57:34;;;;;;;6.85;3.20;;;;;;;13.32;87.10;99663.17;1790488;80;21067;-78
2021/09/04 02:00:07;;;;;;;4.87;2.98;;;;;;;13.29;86.64;99659.39;1790618;80;21183;-77
2021/09/04 02:02:37;;;;;;;6.72;2.98;;;;;;;13.23;86.48;99646.86;1753211;81;21041;-77
2021/09/04 02:05:06;;;;;;;4.72;3.00;;;;;;;13.23;86.10;99653.47;1790716;80;21606;-77
2021/09/04 02:07:34;;;;;;;3.67;2.60;;;;;;;13.21;86.06;99652.70;1790316;80;21040;-77
2021/09/04 02:10:04;;;;;;;7.40;2.77;;;;;;;13.18;85.83;99651.56;1790488;80;21048;-76
2021/09/04 02:12:30;;;;;;;4.58;2.62;;;;;;;13.12;85.94;99647.92;1790517;80;21044;-76
2021/09/04 02:14:58;;;;;;;4.55;2.45;;;;;;;13.06;85.92;99654.86;1790385;80;21052;-64
2021/09/04 02:17:27;;;;;;;4.22;2.52;;;;;;;13.03;86.05;99664.29;1790559;80;21126;-77
2021/09/04 02:19:53;;;;;;;3.80;2.30;;;;;;;12.98;86.13;99667.66;1793837;78;21049;-76
2021/09/04 02:22:21;;;;;;;7.40;2.33;;;;;;;12.95;86.01;99670.45;1811799;79;21053;-78
2021/09/04 02:24:49;;;;;;;5.45;2.67;;;;;;;12.94;86.28;99675.36;1811589;79;21082;-77
2021/09/04 02:27:19;;;;;;;;;;;;;;;12.90;86.79;99669.84;1815235;79;21089;-79
2021/09/04 02:29:47;;;;;;;8.75;2.40;;;;;;;12.88;86.69;99676.53;1813582;79;21091;-77
2021/09/04 02:34:39;;;;;;;4.28;2.30;;;;;;;12.87;86.97;99677.95;1797316;79;22720;-78
2021/09/04 02:37:10;;;;;;;4.30;2.22;;;;;;;12.74;87.21;99674.63;1750408;80;21062;-77
2021/09/04 02:39:39;;;;;;;6.00;2.50;;;;;;;12.69;87.43;99677.98;1748014;82;22014;-78
2021/09/04 02:42:08;;;;;;;6.47;2.33;;;;;;;12.65;87.39;99684.36;1748193;82;21022;-77
2021/09/04 02:44:36;;;;;;;5.65;2.55;;;;;;;12.58;87.66;99681.21;1748315;82;21010;-78
2021/09/04 02:47:03;;;;;;;3.67;2.05;;;;;;;12.54;87.86;99686.73;1749050;82;21390;-76
2021/09/04 02:49:30;;;;;;;2.90;1.87;;;;;;;12.48;88.05;99685.25;1748205;82;21080;-76
2021/09/04 02:51:57;;;;;;;3.08;2.37;;;;;;;12.44;88.47;99680.20;1748129;82;21979;-78
2021/09/04 02:54:24;;;;;;;3.12;1.85;;;;;;;12.39;88.50;99673.37;1747925;82;21069;-77
2021/09/04 02:56:52;;;;;;;4.50;2.05;;;;;;;12.37;88.68;99679.67;1748437;82;21052;-78
2021/09/04 02:59:20;;;;;;;3.20;2.00;;;;;;;12.31;89.12;99678.20;1749905;82;21018;-76
2021/09/04 03:01:46;;;;;;;3.00;1.85;;;;;;;12.28;89.01;99689.37;1728929;82;21499;-78
2021/09/04 03:04:18;;;;;;;3.77;2.00;;;;;;;12.25;89.22;99697.47;1719290;83;21115;-76
2021/09/04 03:06:46;;;;;;;3.08;1.67;;;;;;;12.19;89.68;99692.02;1718500;82;21556;-77
2021/09/04 03:09:14;;;;;;;3.70;1.82;;;;;;;12.12;89.79;99690.63;1718121;83;21045;-77
2021/09/04 03:11:41;;;;;;;3.45;1.92;;;;;;;12.04;90.38;99696.30;1718206;83;21076;-78
2021/09/04 03:14:09;;;;;;;2.90;1.77;;;;;;;11.95;90.53;99694.96;1718365;83;21049;-77
2021/09/04 03:16:36;;;;;;;4.17;2.00;;;;;;;11.93;90.81;99701.25;1718221;83;21161;-77
2021/09/04 03:19:03;;;;;;;2.25;1.60;;;;;;;11.90;90.80;99702.26;1717895;83;21159;-76
2021/09/04 03:21:31;;;;;;;5.47;1.87;;;;;;;11.88;90.65;99712.03;1718122;83;21093;-77
2021/09/04 03:23:57;;;;;;;2.77;1.90;;;;;;;11.89;90.78;99721.67;1718058;83;21106;-78
2021/09/04 03:26:25;;;;;;;2.83;1.50;;;;;;;11.86;89.30;99728.36;1718469;83;21073;-78
2021/09/04 03:28:52;;;;;;;3.77;1.80;;;;;;;11.85;88.62;99733.27;1718390;83;21153;-76
2021/09/04 03:31:19;;;;;;;4.20;1.47;;;;;;;11.83;88.70;99729.84;1718563;83;20986;-78
2021/09/04 03:33:49;;;;;;;3.42;1.70;;;;;;;11.82;88.01;99741.30;1718456;83;21152;-77
2021/09/04 03:36:16;;;;;;;4.17;2.02;;;;;;;11.85;88.30;99751.73;1719077;83;21033;-77
2021/09/04 03:38:45;;;;;;;2.60;1.55;;;;;;;11.86;87.59;99745.52;1719255;83;21085;-77
2021/09/04 03:41:14;;;;;;;3.40;1.40;;;;;;;11.88;87.21;99750.29;1719549;83;21178;-78
2021/09/04 03:43:41;;;;;;;4.12;1.70;;;;;;;11.89;86.78;99749.37;1719528;83;21132;-80
2021/09/04 03:46:10;;;;;;;1.85;1.40;;;;;;;11.87;86.26;99747.27;1718699;83;21080;-77
2021/09/04 03:48:37;;;;;;;4.15;1.77;;;;;;;11.88;86.24;99755.56;1718621;83;21548;-78
2021/09/04 03:51:07;;;;;;;4.35;1.37;;;;;;;11.88;85.86;99743.69;1718502;83;21085;-77
2021/09/04 03:53:34;;;;;;;3.47;1.40;;;;;;;11.93;85.21;99760.15;1718454;83;21528;-77
2021/09/04 03:56:02;;;;;;;3.55;2.10;;;;;;;11.96;86.45;99760.02;1741329;82;21097;-78
2021/09/04 03:58:30;;;;;;;4.12;1.87;;;;;;;12.00;85.37;99765.14;1748492;82;21029;-77
2021/09/04 04:00:57;;;;;;;2.77;1.75;;;;;;;12.01;84.19;99762.88;1748168;82;21056;-78
2021/09/04 04:03:25;;;;;;;2.98;1.75;;;;;;;12.01;85.32;99773.43;1748279;82;20998;-76
2021/09/04 04:05:51;;;;;;;2.98;1.57;;;;;;;12.02;84.25;99771.20;1748079;82;21468;-78
2021/09/04 04:08:20;;;;;;;4.33;2.12;;;;;;;12.03;83.74;99776.86;1747971;82;20994;-78
2021/09/04 04:10:49;;;;;;;3.08;1.65;;;;;;;12.00;84.30;99771.27;1748497;82;21049;-77
2021/09/04 04:13:17;;;;;;;4.10;1.60;;;;;;;12.00;83.43;99782.30;1748678;82;21358;-78
2021/09/04 04:15:44;;;;;;;2.45;1.47;;;;;;;11.99;84.47;99788.52;1749171;82;21096;-76
2021/09/04 04:18:11;;;;;;;3.30;1.62;;;;;;;12.02;83.53;99797.59;1748371;82;21147;-76
2021/09/04 04:20:39;;;;;;;3.10;1.65;;;;;;;12.01;82.85;99801.14;1748398;82;21424;-77
2021/09/04 04:23:05;;;;;;;3.55;1.95;;;;;;;12.01;83.16;99808.63;1748453;82;21049;-78
2021/09/04 04:25:33;;;;;;;7.95;2.55;;;;;;;11.99;82.49;99810.95;1748404;82;21097;-76
2021/09/04 04:28:01;;;;;;;4.53;1.90;;;;;;;11.99;82.79;99817.07;1748491;82;21049;-78
2021/09/04 04:30:29;;;;;;;4.40;1.70;;;;;;;11.98;82.30;99822.41;1748168;82;21771;-78
2021/09/04 04:32:59;;;;;;;3.83;2.10;;;;;;;12.02;83.07;99821.34;1748542;81;21535;-77
2021/09/04 04:35:25;;;;;;;4.37;1.72;;;;;;;12.01;82.75;99822.26;1748510;82;21026;-78
2021/09/04 04:37:52;;;;;;;3.80;2.00;;;;;;;12.02;82.29;99826.63;1748534;82;21045;-78
2021/09/04 04:40:21;;;;;;;4.33;1.87;;;;;;;12.08;82.49;99834.26;1748819;82;21052;-79
2021/09/04 04:42:53;;;;;;;6.37;1.60;;;;;;;12.10;82.96;99838.53;1749487;82;21006;-77
2021/09/04 04:45:20;;;;;;;3.58;2.17;;;;;;;12.14;82.33;99837.91;1749211;82;21045;-78
2021/09/04 04:47:47;;;;;;;3.33;1.45;;;;;;;12.18;82.37;99840.80;1750505;82;21010;-79
2021/09/04 04:50:16;;;;;;;9.38;2.35;;;;;;;12.21;81.75;99847.70;1752467;82;20883;-79
2021/09/04 04:52:43;;;;;;;4.60;2.20;;;;;;;12.21;81.98;99853.83;1752830;79;21026;-80
2021/09/04 04:55:11;;;;;;;3.87;1.70;;;;;;;12.24;82.87;99865.59;1739431;82;21035;-77
2021/09/04 04:57:38;;;;;;;2.92;1.60;;;;;;;12.27;82.09;99866.75;1719239;83;21081;-80
2021/09/04 05:00:11;;;;;;;4.30;2.10;;;;;;;12.29;82.13;99859.61;1719535;83;21017;-79
2021/09/04 05:02:39;;;;;;;4.75;1.80;;;;;;;12.31;82.17;99859.55;1719405;83;21076;-78
2021/09/04 05:05:08;;;;;;;3.55;2.17;;;;;;;12.34;82.58;99865.52;1719031;83;21026;-76
2021/09/04 05:07:36;;;;;;;6.47;2.40;;;;;;;12.38;83.15;99870.20;1718625;83;21536;-78
2021/09/04 05:10:06;;;;;;;6.55;2.25;;;;;;;12.40;82.46;99869.67;1718496;83;21116;-78
2021/09/04 05:12:35;;;;;;;4.53;2.03;;;;;;;12.43;83.02;99868.66;1718907;83;21062;-80
2021/09/04 05:15:07;;;;;;;7.08;2.08;;;;;;;12.47;83.43;99879.44;1718957;83;21046;-78
2021/09/04 05:17:34;;;;;;;13.48;3.67;;;;;;;12.49;82.54;99874.94;1718768;83;21053;-78
2021/09/04 05:20:05;;;;;;;3.42;2.27;;;;;;;12.49;82.83;99886.38;1718871;83;21129;-77
2021/09/04 05:22:33;;;;;;;5.37;2.00;;;;;;;12.47;82.45;99891.32;1718638;83;21081;-78
2021/09/04 05:25:04;;;;;;;4.10;2.00;;;;;;;12.42;82.48;99890.70;1718425;83;21061;-78
2021/09/04 05:27:32;;;;;;;3.70;2.17;;;;;;;12.43;83.42;99891.11;1718399;83;21084;-77
2021/09/04 05:29:59;;;;;;;2.75;1.70;;;;;;;12.45;82.71;99894.53;1735346;82;21564;-78
2021/09/04 05:32:26;;;;;;;4.47;2.17;;;;;;;12.47;82.87;99893.96;1748148;82;21147;-77
2021/09/04 05:34:54;;;;;;;5.17;2.55;;;;;;;12.47;83.45;99897.92;1748236;82;21081;-77
2021/09/04 05:37:20;;;;;;;5.22;2.35;;;;;;;12.50;83.07;99905.25;1748366;82;21057;-79
2021/09/04 05:39:48;;;;;;;4.05;2.05;;;;;;;12.57;83.49;99911.09;1747939;82;21097;-78
2021/09/04 05:42:15;;;;;;;5.60;2.10;;;;;;;12.55;82.67;99912.95;1747753;82;21630;-78
2021/09/04 05:44:42;;;;;;;6.40;2.40;;;;;;;12.58;83.23;99910.15;1748221;82;21171;-79
2021/09/04 05:47:09;;;;;;;4.78;2.12;;;;;;;12.63;83.77;99909.92;1748426;82;21017;-77
2021/09/04 05:49:35;;;;;;;5.22;2.42;;;;;;;12.69;82.66;99913.12;1748347;82;21037;-79
2021/09/04 05:52:05;;;;;;;6.47;2.25;;;;;;;12.71;82.54;99917.87;1748242;81;21093;-78
2021/09/04 05:54:33;;;;;;;5.45;2.62;;;;;;;12.68;82.27;99921.99;1737754;82;21077;-79
2021/09/04 05:57:00;;;;;;;5.25;1.77;;;;;;;12.67;82.11;99927.34;1748392;82;21525;-77
2021/09/04 05:59:26;;;;;;;5.90;2.65;;;;;;;12.65;83.23;99924.77;1748546;82;21572;-78
2021/09/04 06:01:53;;;;;;;5.33;2.52;;;;;;;12.69;82.56;99921.05;1748520;82;21780;-78
2021/09/04 06:04:19;;;;;;;6.25;2.62;;;;;;;12.78;82.69;99930.31;1748427;82;21038;-79
2021/09/04 06:06:46;;;;;;;7.65;2.17;;;;;;;12.86;82.27;99935.21;1748613;82;21040;-77
2021/09/04 06:09:15;;;;;;;8.88;2.85;;;;;;;12.97;81.90;99932.89;1748887;82;21591;-77
2021/09/04 06:11:44;;;;;;;3.95;1.92;;;;;;;13.09;81.79;99929.66;1749353;82;21041;-77
2021/09/04 06:14:14;;;;;;;3.65;1.98;;;;;;;13.25;80.85;99936.78;1748357;81;21022;-78
2021/09/04 06:16:40;;;;;;;4.58;2.20;;;;;;;13.36;80.08;99934.48;1749365;82;21039;-80
2021/09/04 06:19:09;;;;;;;4.42;2.10;;;;;;;13.47;80.37;99940.08;1748272;82;21575;-79
2021/09/04 06:21:37;;;;;;;3.92;2.40;;;;;;;13.61;78.36;99937.55;1748278;82;20994;-77
2021/09/04 06:24:04;;;;;;;4.05;2.08;;;;;;;13.74;77.75;99934.28;1748709;82;21496;-79
2021/09/04 06:26:31;;;;;;;5.20;2.58;;;;;;;13.87;75.64;99935.78;1749344;82;20994;-77
2021/09/04 06:28:58;;;;;;;3.60;1.92;;;;;;;14.04;74.04;99937.91;1750194;82;21497;-80
2021/09/04 06:31:25;;;;;;;3.45;1.52;;;;;;;14.25;72.40;99942.98;1749268;82;21045;-80
2021/09/04 06:33:51;;;;;;;3.92;1.65;;;;;;;14.55;71.07;99942.24;1750549;81;21479;-78
2021/09/04 06:36:25;;;;;;;3.37;1.62;;;;;;;14.84;68.04;99957.34;1750856;82;21129;-77
2021/09/04 06:38:56;;;;;;;3.33;1.42;;;;;;;14.96;67.60;99955.78;1750572;82;21084;-79
2021/09/04 06:41:23;;;;;;;3.25;1.62;;;;;;;15.12;63.75;99966.35;1748426;82;21520;-80
2021/09/04 06:43:51;;;;;;;4.85;1.67;;;;;;;15.41;63.98;99965.09;1748449;82;21053;-80
2021/09/04 06:46:19;;;;;;;3.33;1.40;;;;;;;15.88;63.02;99970.70;1748368;82;21090;-80
2021/09/04 06:48:48;;;;;;;2.92;1.17;;;;;;;16.35;61.31;99969.51;1748393;82;21030;-78
2021/09/04 06:51:16;;;;;;;4.90;1.20;;;;;;;16.89;59.02;99961.62;1748601;82;21085;-77
2021/09/04 06:53:46;;;;;;;2.80;1.60;;;;;;;17.50;54.81;99961.10;1748360;82;21061;-78
2021/09/04 06:56:15;;;;;;;3.12;1.20;;;;;;;17.87;54.73;99962.58;1722882;82;21049;-80
2021/09/04 06:58:41;;;;;;;7.15;1.20;;;;;;;18.38;53.90;99966.49;1718409;83;21089;-78
2021/09/04 07:01:07;;;;;;;5.50;1.30;;;;;;;18.73;50.26;99968.44;1718404;83;21025;-77
2021/09/04 07:03:34;;;;;;;7.62;1.40;;;;;;;18.91;48.34;99961.77;1694284;83;21045;-80
2021/09/04 07:06:00;;;;;;;2.70;1.10;;;;;;;19.18;48.85;99968.66;1721642;83;21013;-78
2021/09/04 07:08:27;;;;;;;15.05;2.72;;;;;;;19.66;47.08;99968.05;1721291;83;20963;-79
2021/09/04 07:10:53;;;;;;;5.40;1.30;;;;;;;20.31;46.48;99968.34;1721689;83;21520;-78
2021/09/04 07:13:20;;;;;;;2.47;1.30;;;;;;;20.95;43.51;99968.97;1718828;83;21591;-78
2021/09/04 07:15:50;;;;;;;2.27;1.10;;;;;;;21.42;40.99;99974.89;1718570;83;21484;-78
2021/09/04 07:18:24;;;;;;;2.25;1.20;;;;;;;21.53;40.45;99977.52;1718809;83;21096;-79
2021/09/04 07:20:52;;;;;;;2.35;1.17;;;;;;;21.70;39.44;99979.23;1718645;83;21064;-79
2021/09/04 07:23:20;;;;;;;1.92;1.17;;;;;;;22.06;40.28;99977.00;1718535;83;21123;-78
2021/09/04 07:25:50;;;;;;;3.45;1.07;;;;;;;22.85;37.17;99972.27;1718115;83;21104;-79
2021/09/04 07:28:17;;;;;;;3.17;1.32;;;;;;;23.16;36.60;99972.50;1718876;83;21110;-78
2021/09/04 07:30:44;;;;;;;1.72;1.20;;;;;;;22.76;37.00;99977.47;1718769;83;21088;-79
2021/09/04 07:33:11;;;;;;;3.72;1.20;;;;;;;22.30;37.85;99978.91;1718924;83;21037;-78
2021/09/04 07:35:38;;;;;;;5.25;1.35;;;;;;;21.95;38.55;99986.00;1708811;83;21161;-80
2021/09/04 07:38:04;;;;;;;2.85;1.12;;;;;;;21.66;39.02;99989.84;1705270;84;21053;-79
2021/09/04 07:40:31;;;;;;;1.57;0.80;;;;;;;21.95;38.17;99982.83;1705331;84;21053;-79
2021/09/04 07:42:58;;;;;;;3.17;1.10;;;;;;;22.55;37.47;99980.26;1705330;84;21567;-79
2021/09/04 07:45:24;;;;;;;3.05;1.20;;;;;;;23.13;35.64;99979.52;1705885;84;21600;-79
2021/09/04 07:47:51;;;;;;;3.65;1.02;;;;;;;23.28;35.47;99979.08;1705677;84;21517;-78
2021/09/04 07:50:19;;;;;;;5.05;0.90;;;;;;;23.40;34.59;99977.95;1705385;84;21067;-77
2021/09/04 07:52:46;;;;;;;2.67;1.42;;;;;;;23.24;33.46;99983.41;1705547;84;21031;-76
2021/09/04 07:55:12;;;;;;;2.10;1.20;;;;;;;22.36;33.88;99981.06;1717970;82;22228;-78
2021/09/04 07:57:38;;;;;;;3.90;1.00;;;;;;;21.81;35.79;99984.52;1734780;82;21062;-76
2021/09/04 08:00:07;;;;;;;2.30;1.00;;;;;;;21.71;36.93;99990.30;1734491;82;21137;-76
2021/09/04 08:02:36;;;;;;;1.70;0.70;;;;;;;22.02;37.01;99992.99;1733989;82;21023;-76
2021/09/04 08:05:02;;;;;;;2.30;0.98;;;;;;;22.59;34.39;99997.79;1734690;82;21548;-78
2021/09/04 08:07:29;;;;;;;8.55;1.10;;;;;;;23.15;33.06;99998.19;1734577;82;21099;-78
2021/09/04 08:09:57;;;;;;;5.72;0.90;;;;;;;23.58;31.57;100003.11;1734064;82;21696;-78
2021/09/04 08:12:25;;;;;;;2.62;0.82;;;;;;;23.78;31.90;100004.44;1734537;82;21156;-79
2021/09/04 08:14:52;;;;;;;1.92;0.80;;;;;;;24.05;31.02;99995.09;1734665;82;22350;-78
2021/09/04 08:17:18;;;;;;;3.42;0.68;;;;;;;24.30;31.43;100000.81;1734315;82;21065;-78
2021/09/04 08:19:46;;;;;;;3.20;0.82;;;;;;;24.84;30.96;99991.02;1734170;82;21015;-78
2021/09/04 08:22:15;;;;;;;1.50;0.75;;;;;;;25.26;29.45;99990.48;1734194;82;21094;-78
2021/09/04 08:24:42;;;;;;;4.60;1.05;;;;;;;25.25;27.80;99988.77;1734247;81;21085;-78
2021/09/04 08:27:08;;;;;;;5.33;0.80;;;;;;;24.92;29.48;99998.36;1734252;82;21081;-78
2021/09/04 08:29:35;;;;;;;1.12;0.68;;;;;;;24.63;28.52;99993.16;1734128;82;21050;-78
2021/09/04 08:32:02;;;;;;;0.98;0.60;;;;;;;24.19;29.51;99992.92;1733955;82;21037;-79
2021/09/04 08:34:29;;;;;;;2.40;0.50;;;;;;;24.04;29.25;99997.44;1733976;81;21591;-77
2021/09/04 08:36:55;;;;;;;3.08;0.80;;;;;;;23.70;28.48;99994.89;1734366;82;22151;-78
2021/09/04 08:39:21;;;;;;;0.88;0.42;;;;;;;23.82;30.48;99996.44;1734197;82;21030;-78
2021/09/04 08:41:48;;;;;;;43.63;4.25;;;;;;;23.36;28.17;99994.00;1734336;82;21054;-79
2021/09/04 08:44:14;;;;;;;3.55;0.80;;;;;;;23.00;28.84;99995.05;1734527;82;21184;-79
2021/09/04 08:46:41;;;;;;;1.40;0.62;;;;;;;23.08;29.85;100000.58;1734159;82;21026;-80
2021/09/04 08:49:09;;;;;;;2.33;0.55;;;;;;;23.60;28.88;100005.16;1734297;82;21073;-81
2021/09/04 08:51:38;;;;;;;1.77;0.93;;;;;;;23.96;27.57;99995.13;1734256;82;21077;-80
2021/09/04 08:54:09;;;;;;;1.82;0.70;;;;;;;24.24;27.98;99996.01;1734375;82;22172;-80
2021/09/04 08:56:37;;;;;;;1.77;0.88;;;;;;;24.58;25.82;99982.00;1705294;82;21041;-80
2021/09/04 08:59:03;;;;;;;3.60;0.60;;;;;;;24.88;25.86;99985.69;1705201;84;21062;-78
2021/09/04 09:01:32;;;;;;;1.98;0.80;;;;;;;24.77;24.75;99985.91;1704902;84;21177;-78
2021/09/04 09:04:19;;;;;;;2.25;0.80;;;;;;;24.52;26.10;99986.13;1705146;84;21174;-78
2021/09/04 09:06:45;;;;;;;7.10;1.42;;;;;;;24.65;27.33;99986.62;1705258;84;21775;-78
2021/09/04 09:09:24;;;;;;;1.47;0.53;;;;;;;24.91;26.14;99988.09;1705046;84;21077;-78
2021/09/04 09:11:54;;;;;;;1.87;0.70;;;;;;;25.02;27.01;99990.20;1704798;84;21513;-79
2021/09/04 09:14:22;;;;;;;2.27;0.93;;;;;;;24.78;25.59;99991.66;1707787;84;21083;-78
2021/09/04 09:16:55;;;;;;;2.90;1.12;;;;;;;24.62;25.89;99992.31;1706637;84;21334;-77
2021/09/04 09:19:30;;;;;;;9.15;1.22;;;;;;;24.70;26.99;99992.89;1705333;84;21536;-79
2021/09/04 09:21:57;;;;;;;4.12;0.65;;;;;;;25.09;25.62;99985.38;1685023;84;21552;-79
2021/09/04 09:24:25;;;;;;;1.17;0.70;;;;;;;25.21;25.02;99987.38;1705257;84;21022;-76
2021/09/04 09:26:57;;;;;;;4.00;0.88;;;;;;;25.29;27.28;99992.84;1684902;84;21964;-77
2021/09/04 09:29:34;;;;;;;4.53;0.62;;;;;;;25.37;25.34;99993.91;1704883;84;21568;-78
2021/09/04 09:32:05;;;;;;;7.03;0.78;;;;;;;25.60;25.26;99992.41;1705122;84;21089;-78
2021/09/04 09:34:45;;;;;;;3.75;0.80;;;;;;;25.88;24.49;99998.56;1684753;83;21113;-79
2021/09/04 09:37:13;;;;;;;9.98;1.20;;;;;;;26.05;23.73;100007.59;1705313;84;26825;-78
2021/09/04 09:39:44;;;;;;;5.55;0.82;;;;;;;26.09;24.10;99998.17;1704673;84;21161;-79
2021/09/04 09:42:12;;;;;;;9.83;1.47;;;;;;;26.01;24.28;99991.37;1705191;84;21166;-77
2021/09/04 09:44:40;;;;;;;5.30;1.10;;;;;;;25.89;24.07;99985.91;1704923;84;21109;-77
2021/09/04 09:47:12;;;;;;;1.82;0.90;;;;;;;25.35;24.91;100005.35;1704892;84;21655;-78
2021/09/04 09:49:43;;;;;;;0.90;0.60;;;;;;;24.88;25.49;100020.70;1704796;84;21517;-78
2021/09/04 09:52:16;;;;;;;9.05;1.30;;;;;;;24.47;26.12;100013.48;1705172;84;21129;-77
2021/09/04 09:54:48;;;;;;;0.93;0.60;;;;;;;23.75;26.36;100024.41;1711327;82;21078;-76
2021/09/04 09:57:19;;;;;;;5.37;0.98;;;;;;;23.19;26.95;100024.63;1734098;82;21109;-78
2021/09/04 09:59:46;;;;;;;3.08;1.17;;;;;;;22.71;28.38;100030.73;1713021;82;21030;-78
2021/09/04 10:02:14;;;;;;;4.72;1.00;;;;;;;22.34;29.61;100036.68;1734062;82;21730;-77
2021/09/04 10:04:47;;;;;;;1.30;0.68;;;;;;;22.26;28.58;100031.13;1734121;82;21048;-78
2021/09/04 10:07:13;;;;;;;3.08;1.00;;;;;;;22.14;28.69;100033.52;1734459;82;21017;-78
2021/09/04 10:09:40;;;;;;;5.00;0.85;;;;;;;22.20;28.91;100034.30;1734328;82;21089;-78
2021/09/04 10:12:10;;;;;;;1.57;0.78;;;;;;;22.47;28.17;100039.11;1734571;82;21525;-77
2021/09/04 10:14:38;;;;;;;4.90;0.90;;;;;;;22.60;28.65;100022.78;1738132;82;21022;-76
2021/09/04 10:17:08;;;;;;;3.45;0.72;;;;;;;22.83;27.90;100033.64;1734880;82;21260;-79
2021/09/04 10:19:35;;;;;;;1.77;0.60;;;;;;;22.97;29.17;100036.93;1713604;82;21082;-77
2021/09/04 10:22:06;;;;;;;0.90;0.50;;;;;;;22.97;28.48;100042.30;1734448;82;20983;-78
2021/09/04 12:05:35;;;;;;;1.32;0.70;;;;;;;22.91;27.65;100050.40;1797303;78;22512;-77
2021/09/04 12:08:08;;;;;;;0.95;0.72;;;;;;;22.68;27.90;100055.14;1771141;81;20991;-77
2021/09/04 12:10:38;;;;;;;2.12;0.90;;;;;;;22.41;28.06;100061.98;1771071;81;21107;-77
2021/09/04 12:13:12;;;;;;;2.52;1.02;;;;;;;22.17;28.41;100064.08;1771209;81;21609;-77
2021/09/04 12:15:39;;;;;;;1.22;0.60;;;;;;;21.75;28.57;100066.78;1741752;81;21211;-77
2021/09/04 12:18:09;;;;;;;1.95;0.65;;;;;;;21.24;28.75;100074.16;1771170;80;21118;-79
2021/09/04 12:20:39;;;;;;;2.40;0.72;;;;;;;20.86;29.74;100068.77;1771170;81;21083;-78
2021/09/04 12:23:16;;;;;;;4.40;0.63;;;;;;;20.85;30.89;100069.75;1771693;81;21110;-77
2021/09/04 12:25:44;;;;;;;4.70;0.68;;;;;;;21.08;30.60;100070.06;1771419;81;21696;-79
2021/09/04 12:28:14;;;;;;;0.80;0.60;;;;;;;21.29;29.82;100065.25;1771564;80;21538;-77
2021/09/04 12:31:05;;;;;;;2.08;1.35;;;;;;;21.44;29.38;100061.34;1771776;80;21051;-79
2021/09/04 12:33:54;;;;;;;4.42;0.98;;;;;;;21.42;29.39;100057.06;1771842;80;20993;-79
2021/09/04 12:36:32;;;;;;;4.40;1.10;;;;;;;21.40;29.39;100059.89;1774211;81;21437;-78
2021/09/04 12:39:13;;;;;;;1.72;1.00;;;;;;;21.42;29.64;100063.30;1773900;81;20949;-78
2021/09/04 12:41:39;;;;;;;;;;;;;;;21.50;31.61;100062.14;1777842;81;21071;-78
2021/09/04 12:44:09;;;;;;;1.80;0.85;;;;;;;21.51;29.97;100062.52;1771578;81;20163;-78
2021/09/04 12:46:50;;;;;;;4.03;1.00;;;;;;;21.51;28.34;100058.50;1771527;81;21055;-81
2021/09/04 12:49:32;;;;;;;3.10;0.93;;;;;;;21.40;28.53;100065.25;1771489;81;21132;-78
2021/09/04 12:52:12;;;;;;;2.90;0.98;;;;;;;21.23;30.07;100069.77;1771301;81;21136;-77
2021/09/04 12:54:55;;;;;;;2.42;1.27;;;;;;;21.06;28.56;100065.31;1771531;81;21771;-78
2021/09/04 12:57:29;;;;;;;3.83;1.60;;;;;;;20.87;28.69;100072.66;1740441;82;20948;-76
2021/09/04 13:00:10;;;;;;;1.98;1.00;;;;;;;20.88;29.60;100066.81;1741102;82;21074;-79
2021/09/04 13:02:41;;;;;;;2.52;1.40;;;;;;;20.97;30.71;100063.39;1737781;82;21107;-77
2021/09/04 13:05:12;;;;;;;6.97;1.12;;;;;;;21.04;28.97;100066.42;1739080;82;21016;-78
2021/09/04 13:07:47;;;;;;;5.92;3.27;;;;;;;20.97;29.54;100064.73;1738566;82;21321;-78
2021/09/04 13:10:20;;;;;;;4.58;2.70;;;;;;;20.97;29.26;100067.90;1738295;82;21606;-78
2021/09/04 13:12:48;;;;;;;8.90;6.58;;;;;;;20.92;28.38;100057.56;1738115;82;21559;-79
2021/09/04 13:15:14;;;;;;;11.90;7.37;;;;;;;20.95;28.92;100059.98;1738586;82;21141;-77
2021/09/04 13:17:43;;;;;;;6.35;4.05;;;;;;;20.98;28.51;100051.72;1738299;82;21083;-79
2021/09/04 13:20:12;;;;;;;2.50;1.67;;;;;;;20.85;28.31;100061.72;1738674;82;21143;-77
2021/09/04 13:22:39;;;;;;;12.90;4.75;;;;;;;20.76;28.39;100049.93;1738314;82;21052;-78